sensor_id;sensor_type;location;lat;lon;timestamp;pressure;altitude;pressure_sealevel;temperature;humidity
20228;BME280;12195;55.790;37.572;2023-01-06T00:00:16;99395.12;;;-17.05;65.71
20228;BME280;12195;55.790;37.572;2023-01-06T00:02:48;99382.80;;;-17.18;65.61
20228;BME280;12195;55.790;37.572;2023-01-06T00:05:20;99390.39;;;-17.16;65.66
20228;BME280;12195;55.790;37.572;2023-01-06T00:07:52;99390.16;;;-17.21;65.57
20228;BME280;12195;55.790;37.572;2023-01-06T00:10:25;99400.67;;;-17.28;65.59
20228;BME280;12195;55.790;37.572;2023-01-06T00:12:57;99398.84;;;-17.32;65.46
20228;BME280;12195;55.790;37.572;2023-01-06T00:15:29;99396.89;;;-17.37;65.54
20228;BME280;12195;55.790;37.572;2023-01-06T00:18:01;99396.41;;;-17.48;65.59
20228;BME280;12195;55.790;37.572;2023-01-06T00:20:32;99392.23;;;-17.47;65.83
20228;BME280;12195;55.790;37.572;2023-01-06T00:23:05;99394.45;;;-17.53;65.67
20228;BME280;12195;55.790;37.572;2023-01-06T00:25:37;99408.62;;;-17.54;65.68
20228;BME280;12195;55.790;37.572;2023-01-06T00:28:09;99405.20;;;-17.56;65.76
20228;BME280;12195;55.790;37.572;2023-01-06T00:30:41;99408.14;;;-17.47;65.87
20228;BME280;12195;55.790;37.572;2023-01-06T00:33:14;99411.12;;;-17.54;65.77
20228;BME280;12195;55.790;37.572;2023-01-06T00:35:46;99407.55;;;-17.59;65.76
20228;BME280;12195;55.790;37.572;2023-01-06T00:38:19;99411.39;;;-17.65;65.82
20228;BME280;12195;55.790;37.572;2023-01-06T00:40:51;99424.63;;;-17.68;65.95
20228;BME280;12195;55.790;37.572;2023-01-06T00:43:23;99426.27;;;-17.68;66.09
20228;BME280;12195;55.790;37.572;2023-01-06T00:45:55;99442.01;;;-17.71;66.16
20228;BME280;12195;55.790;37.572;2023-01-06T00:48:27;99440.12;;;-17.75;66.15
20228;BME280;12195;55.790;37.572;2023-01-06T00:51:00;99439.25;;;-17.75;66.18
20228;BME280;12195;55.790;37.572;2023-01-06T00:53:33;99446.72;;;-17.77;66.08
20228;BME280;12195;55.790;37.572;2023-01-06T00:56:06;99451.41;;;-17.83;66.00
20228;BME280;12195;55.790;37.572;2023-01-06T00:58:37;99451.95;;;-17.88;66.12
20228;BME280;12195;55.790;37.572;2023-01-06T01:01:09;99449.61;;;-17.85;66.14
20228;BME280;12195;55.790;37.572;2023-01-06T01:03:41;99465.42;;;-17.86;65.58
20228;BME280;12195;55.790;37.572;2023-01-06T01:06:13;99454.95;;;-17.95;65.53
20228;BME280;12195;55.790;37.572;2023-01-06T01:08:46;99459.78;;;-17.98;65.50
20228;BME280;12195;55.790;37.572;2023-01-06T01:11:19;99468.00;;;-18.01;65.48
20228;BME280;12195;55.790;37.572;2023-01-06T01:14:11;99472.05;;;-18.03;65.42
20228;BME280;12195;55.790;37.572;2023-01-06T01:16:44;99480.36;;;-18.04;65.46
20228;BME280;12195;55.790;37.572;2023-01-06T01:19:16;99480.72;;;-18.12;65.48
20228;BME280;12195;55.790;37.572;2023-01-06T01:21:49;99488.85;;;-18.16;65.45
20228;BME280;12195;55.790;37.572;2023-01-06T01:24:22;99493.02;;;-18.17;65.55
20228;BME280;12195;55.790;37.572;2023-01-06T01:26:54;99495.44;;;-18.18;65.60
20228;BME280;12195;55.790;37.572;2023-01-06T01:29:26;99509.97;;;-18.27;65.55
20228;BME280;12195;55.790;37.572;2023-01-06T01:31:58;99517.57;;;-18.26;65.65
20228;BME280;12195;55.790;37.572;2023-01-06T01:34:30;99514.89;;;-18.29;65.64
20228;BME280;12195;55.790;37.572;2023-01-06T01:37:12;99524.91;;;-18.29;65.56
20228;BME280;12195;55.790;37.572;2023-01-06T01:39:46;99527.04;;;-18.36;65.51
20228;BME280;12195;55.790;37.572;2023-01-06T01:42:20;99539.47;;;-18.38;65.58
20228;BME280;12195;55.790;37.572;2023-01-06T01:44:54;99531.78;;;-18.41;65.61
20228;BME280;12195;55.790;37.572;2023-01-06T01:50:26;99533.50;;;-18.40;65.11
20228;BME280;12195;55.790;37.572;2023-01-06T01:53:07;99533.00;;;-18.49;65.18
20228;BME280;12195;55.790;37.572;2023-01-06T01:55:36;99547.75;;;-18.53;65.27
20228;BME280;12195;55.790;37.572;2023-01-06T01:58:12;99548.36;;;-18.57;65.18
20228;BME280;12195;55.790;37.572;2023-01-06T02:00:44;99543.91;;;-18.63;65.19
20228;BME280;12195;55.790;37.572;2023-01-06T02:03:18;99555.27;;;-18.68;65.36
20228;BME280;12195;55.790;37.572;2023-01-06T02:05:56;99554.52;;;-18.67;65.60
20228;BME280;12195;55.790;37.572;2023-01-06T02:11:07;99568.73;;;-18.66;65.74
20228;BME280;12195;55.790;37.572;2023-01-06T02:13:42;99574.53;;;-18.67;65.76
20228;BME280;12195;55.790;37.572;2023-01-06T02:28:46;99581.77;;;-18.71;65.78
20228;BME280;12195;55.790;37.572;2023-01-06T02:40:28;99597.28;;;-18.77;64.94
20228;BME280;12195;55.790;37.572;2023-01-06T02:48:45;99610.14;;;-18.85;64.96
20228;BME280;12195;55.790;37.572;2023-01-06T02:51:20;99622.70;;;-18.84;64.74
20228;BME280;12195;55.790;37.572;2023-01-06T02:56:52;99630.28;;;-18.97;64.94
20228;BME280;12195;55.790;37.572;2023-01-06T02:59:27;99626.66;;;-19.02;64.92
20228;BME280;12195;55.790;37.572;2023-01-06T03:02:00;99633.88;;;-19.06;65.00
20228;BME280;12195;55.790;37.572;2023-01-06T03:04:37;99632.16;;;-19.07;65.06
20228;BME280;12195;55.790;37.572;2023-01-06T03:07:10;99641.13;;;-19.11;65.08
20228;BME280;12195;55.790;37.572;2023-01-06T03:09:44;99644.22;;;-19.15;65.22
20228;BME280;12195;55.790;37.572;2023-01-06T03:12:29;99646.96;;;-19.10;65.22
20228;BME280;12195;55.790;37.572;2023-01-06T03:15:01;99647.84;;;-19.10;65.23
20228;BME280;12195;55.790;37.572;2023-01-06T03:17:33;99646.71;;;-19.15;65.27
20228;BME280;12195;55.790;37.572;2023-01-06T03:20:05;99649.80;;;-19.19;65.29
20228;BME280;12195;55.790;37.572;2023-01-06T03:22:38;99667.98;;;-19.21;65.30
20228;BME280;12195;55.790;37.572;2023-01-06T03:25:11;99665.23;;;-19.26;65.33
20228;BME280;12195;55.790;37.572;2023-01-06T03:27:43;99671.42;;;-19.19;65.54
20228;BME280;12195;55.790;37.572;2023-01-06T03:30:16;99672.11;;;-19.22;65.45
20228;BME280;12195;55.790;37.572;2023-01-06T03:33:08;99674.61;;;-19.22;65.46
20228;BME280;12195;55.790;37.572;2023-01-06T03:38:26;99675.53;;;-19.07;64.73
20228;BME280;12195;55.790;37.572;2023-01-06T03:44:04;99671.12;;;-19.11;64.19
20228;BME280;12195;55.790;37.572;2023-01-06T03:46:45;99683.33;;;-19.15;64.04
20228;BME280;12195;55.790;37.572;2023-01-06T03:49:24;99691.94;;;-19.25;64.15
20228;BME280;12195;55.790;37.572;2023-01-06T03:52:00;99691.88;;;-19.26;64.24
20228;BME280;12195;55.790;37.572;2023-01-06T03:54:44;99699.08;;;-19.31;64.30
20228;BME280;12195;55.790;37.572;2023-01-06T03:57:26;99703.89;;;-19.34;64.42
20228;BME280;12195;55.790;37.572;2023-01-06T04:00:08;99705.61;;;-19.33;64.51
20228;BME280;12195;55.790;37.572;2023-01-06T04:02:45;99698.40;;;-19.28;64.35
20228;BME280;12195;55.790;37.572;2023-01-06T04:05:22;99704.08;;;-19.31;64.30
20228;BME280;12195;55.790;37.572;2023-01-06T04:07:55;99708.04;;;-19.34;64.33
20228;BME280;12195;55.790;37.572;2023-01-06T04:10:27;99728.48;;;-19.27;64.25
20228;BME280;12195;55.790;37.572;2023-01-06T04:13:00;99730.69;;;-19.31;64.20
20228;BME280;12195;55.790;37.572;2023-01-06T04:15:33;99734.84;;;-19.32;63.92
20228;BME280;12195;55.790;37.572;2023-01-06T04:18:07;99736.69;;;-19.42;63.97
20228;BME280;12195;55.790;37.572;2023-01-06T04:20:41;99733.11;;;-19.46;63.98
20228;BME280;12195;55.790;37.572;2023-01-06T04:23:15;99731.88;;;-19.52;63.96
20228;BME280;12195;55.790;37.572;2023-01-06T04:25:48;99737.65;;;-19.53;64.02
20228;BME280;12195;55.790;37.572;2023-01-06T04:28:21;99746.87;;;-19.52;64.08
20228;BME280;12195;55.790;37.572;2023-01-06T04:30:56;99742.45;;;-19.56;63.92
20228;BME280;12195;55.790;37.572;2023-01-06T04:33:29;99740.25;;;-19.52;63.95
20228;BME280;12195;55.790;37.572;2023-01-06T04:36:03;99739.59;;;-19.62;63.70
20228;BME280;12195;55.790;37.572;2023-01-06T04:38:35;99745.73;;;-19.57;63.34
20228;BME280;12195;55.790;37.572;2023-01-06T04:41:07;99749.09;;;-19.57;63.18
20228;BME280;12195;55.790;37.572;2023-01-06T04:43:39;99762.73;;;-19.65;63.39
20228;BME280;12195;55.790;37.572;2023-01-06T04:46:12;99761.77;;;-19.67;63.58
20228;BME280;12195;55.790;37.572;2023-01-06T04:48:44;99774.05;;;-19.70;63.71
20228;BME280;12195;55.790;37.572;2023-01-06T04:51:16;99766.95;;;-19.64;63.99
20228;BME280;12195;55.790;37.572;2023-01-06T04:53:47;99777.89;;;-19.62;64.12
20228;BME280;12195;55.790;37.572;2023-01-06T04:56:20;99787.88;;;-19.62;63.89
20228;BME280;12195;55.790;37.572;2023-01-06T04:58:57;99786.36;;;-19.60;63.75
20228;BME280;12195;55.790;37.572;2023-01-06T05:01:30;99785.28;;;-19.63;63.68
20228;BME280;12195;55.790;37.572;2023-01-06T05:04:02;99781.74;;;-19.67;63.85
20228;BME280;12195;55.790;37.572;2023-01-06T05:06:35;99784.03;;;-19.70;64.05
20228;BME280;12195;55.790;37.572;2023-01-06T05:09:09;99797.09;;;-19.74;63.89
20228;BME280;12195;55.790;37.572;2023-01-06T05:11:41;99792.20;;;-19.72;63.95
20228;BME280;12195;55.790;37.572;2023-01-06T05:14:13;99794.59;;;-19.74;64.06
20228;BME280;12195;55.790;37.572;2023-01-06T05:16:47;99797.50;;;-19.68;64.32
20228;BME280;12195;55.790;37.572;2023-01-06T05:19:19;99790.48;;;-19.60;64.28
20228;BME280;12195;55.790;37.572;2023-01-06T05:21:51;99791.83;;;-19.65;64.20
20228;BME280;12195;55.790;37.572;2023-01-06T05:24:24;99799.05;;;-19.57;64.14
20228;BME280;12195;55.790;37.572;2023-01-06T05:26:56;99799.42;;;-19.64;64.03
20228;BME280;12195;55.790;37.572;2023-01-06T05:29:28;99811.55;;;-19.57;64.13
20228;BME280;12195;55.790;37.572;2023-01-06T05:32:00;99802.39;;;-19.56;63.93
20228;BME280;12195;55.790;37.572;2023-01-06T05:34:32;99808.64;;;-19.50;63.72
20228;BME280;12195;55.790;37.572;2023-01-06T05:37:04;99809.78;;;-19.58;63.30
20228;BME280;12195;55.790;37.572;2023-01-06T05:39:36;99810.56;;;-19.59;63.26
20228;BME280;12195;55.790;37.572;2023-01-06T05:42:08;99811.51;;;-19.70;63.38
20228;BME280;12195;55.790;37.572;2023-01-06T05:44:40;99825.54;;;-19.72;63.59
20228;BME280;12195;55.790;37.572;2023-01-06T05:47:13;99827.67;;;-19.65;63.72
20228;BME280;12195;55.790;37.572;2023-01-06T05:49:45;99833.23;;;-19.69;63.69
20228;BME280;12195;55.790;37.572;2023-01-06T05:52:17;99828.61;;;-19.76;63.66
20228;BME280;12195;55.790;37.572;2023-01-06T05:54:49;99840.73;;;-19.69;63.84
20228;BME280;12195;55.790;37.572;2023-01-06T05:57:21;99849.06;;;-19.68;63.91
20228;BME280;12195;55.790;37.572;2023-01-06T05:59:53;99849.46;;;-19.75;63.85
20228;BME280;12195;55.790;37.572;2023-01-06T06:02:26;99849.53;;;-19.74;63.90
20228;BME280;12195;55.790;37.572;2023-01-06T06:04:58;99854.84;;;-19.69;63.80
20228;BME280;12195;55.790;37.572;2023-01-06T06:07:30;99859.34;;;-19.77;63.86
20228;BME280;12195;55.790;37.572;2023-01-06T06:10:02;99865.29;;;-19.75;63.97
20228;BME280;12195;55.790;37.572;2023-01-06T06:12:34;99860.31;;;-19.62;64.01
20228;BME280;12195;55.790;37.572;2023-01-06T06:15:07;99864.56;;;-19.61;63.48
20228;BME280;12195;55.790;37.572;2023-01-06T06:17:39;99871.75;;;-19.65;63.42
20228;BME280;12195;55.790;37.572;2023-01-06T06:20:12;99873.30;;;-19.67;63.44
20228;BME280;12195;55.790;37.572;2023-01-06T06:22:46;99880.80;;;-19.67;63.57
20228;BME280;12195;55.790;37.572;2023-01-06T06:25:18;99879.34;;;-19.64;63.70
20228;BME280;12195;55.790;37.572;2023-01-06T06:27:50;99887.41;;;-19.68;63.80
20228;BME280;12195;55.790;37.572;2023-01-06T06:30:22;99888.18;;;-19.69;63.80
20228;BME280;12195;55.790;37.572;2023-01-06T06:32:54;99896.05;;;-19.63;63.94
20228;BME280;12195;55.790;37.572;2023-01-06T06:35:26;99898.76;;;-19.60;63.65
20228;BME280;12195;55.790;37.572;2023-01-06T06:37:59;99904.70;;;-19.58;63.64
20228;BME280;12195;55.790;37.572;2023-01-06T06:40:30;99928.97;;;-19.44;63.60
20228;BME280;12195;55.790;37.572;2023-01-06T06:43:02;99914.55;;;-19.35;63.51
20228;BME280;12195;55.790;37.572;2023-01-06T06:45:34;99924.19;;;-19.28;63.03
20228;BME280;12195;55.790;37.572;2023-01-06T06:48:07;99930.13;;;-19.26;62.96
20228;BME280;12195;55.790;37.572;2023-01-06T06:50:39;99934.35;;;-19.25;62.95
20228;BME280;12195;55.790;37.572;2023-01-06T06:53:11;99929.45;;;-19.23;63.04
20228;BME280;12195;55.790;37.572;2023-01-06T06:55:44;99923.38;;;-19.14;63.16
20228;BME280;12195;55.790;37.572;2023-01-06T06:58:16;99924.44;;;-19.10;63.18
20228;BME280;12195;55.790;37.572;2023-01-06T07:00:48;99923.78;;;-18.95;63.20
20228;BME280;12195;55.790;37.572;2023-01-06T07:03:20;99931.25;;;-18.56;62.90
20228;BME280;12195;55.790;37.572;2023-01-06T07:05:53;99926.53;;;-18.24;62.18
20228;BME280;12195;55.790;37.572;2023-01-06T07:08:25;99934.59;;;-18.15;62.04
20228;BME280;12195;55.790;37.572;2023-01-06T07:10:57;99944.80;;;-18.12;61.99
20228;BME280;12195;55.790;37.572;2023-01-06T07:13:30;99954.36;;;-18.19;62.22
20228;BME280;12195;55.790;37.572;2023-01-06T07:16:02;99957.94;;;-18.29;62.32
20228;BME280;12195;55.790;37.572;2023-01-06T07:18:34;99953.39;;;-18.21;62.49
20228;BME280;12195;55.790;37.572;2023-01-06T07:21:07;99953.54;;;-18.05;62.61
20228;BME280;12195;55.790;37.572;2023-01-06T07:23:39;99956.19;;;-17.89;62.62
20228;BME280;12195;55.790;37.572;2023-01-06T07:26:11;99960.67;;;-17.56;62.63
20228;BME280;12195;55.790;37.572;2023-01-06T07:28:45;99968.02;;;-17.30;62.16
20228;BME280;12195;55.790;37.572;2023-01-06T07:31:17;99959.20;;;-17.24;61.81
20228;BME280;12195;55.790;37.572;2023-01-06T07:33:49;99967.17;;;-17.31;61.96
20228;BME280;12195;55.790;37.572;2023-01-06T07:36:21;99966.98;;;-17.34;62.05
20228;BME280;12195;55.790;37.572;2023-01-06T07:38:53;99969.49;;;-17.34;62.29
20228;BME280;12195;55.790;37.572;2023-01-06T07:41:25;99985.84;;;-17.26;61.87
20228;BME280;12195;55.790;37.572;2023-01-06T07:43:59;99987.58;;;-16.96;62.11
20228;BME280;12195;55.790;37.572;2023-01-06T07:46:31;99992.14;;;-16.29;61.88
20228;BME280;12195;55.790;37.572;2023-01-06T07:49:04;99994.86;;;-15.64;60.64
20228;BME280;12195;55.790;37.572;2023-01-06T07:51:36;100001.83;;;-15.42;59.80
20228;BME280;12195;55.790;37.572;2023-01-06T07:54:08;100005.52;;;-15.52;59.96
20228;BME280;12195;55.790;37.572;2023-01-06T07:56:40;100005.46;;;-15.69;60.38
20228;BME280;12195;55.790;37.572;2023-01-06T07:59:14;100017.66;;;-15.91;60.34
20228;BME280;12195;55.790;37.572;2023-01-06T08:01:46;100018.10;;;-16.14;60.45
20228;BME280;12195;55.790;37.572;2023-01-06T08:04:18;100016.56;;;-16.27;60.82
20228;BME280;12195;55.790;37.572;2023-01-06T08:06:50;100010.52;;;-16.30;60.59
20228;BME280;12195;55.790;37.572;2023-01-06T08:09:23;100033.45;;;-15.94;60.28
20228;BME280;12195;55.790;37.572;2023-01-06T08:11:55;100029.37;;;-15.45;59.78
20228;BME280;12195;55.790;37.572;2023-01-06T08:14:29;100036.30;;;-15.24;59.53
20228;BME280;12195;55.790;37.572;2023-01-06T08:17:01;100027.58;;;-15.30;59.26
20228;BME280;12195;55.790;37.572;2023-01-06T08:19:33;100028.11;;;-15.53;58.68
20228;BME280;12195;55.790;37.572;2023-01-06T08:22:06;100026.11;;;-15.75;59.03
20228;BME280;12195;55.790;37.572;2023-01-06T08:24:37;100035.03;;;-15.96;59.12
20228;BME280;12195;55.790;37.572;2023-01-06T08:27:09;100041.70;;;-15.96;59.19
20228;BME280;12195;55.790;37.572;2023-01-06T08:29:41;100039.12;;;-15.82;59.13
20228;BME280;12195;55.790;37.572;2023-01-06T08:32:13;100042.57;;;-15.49;58.68
20228;BME280;12195;55.790;37.572;2023-01-06T08:34:46;100041.63;;;-14.86;58.72
20228;BME280;12195;55.790;37.572;2023-01-06T08:37:18;100038.47;;;-14.31;57.99
20228;BME280;12195;55.790;37.572;2023-01-06T08:39:50;100035.20;;;-14.11;57.13
20228;BME280;12195;55.790;37.572;2023-01-06T08:42:22;100035.38;;;-14.25;57.26
20228;BME280;12195;55.790;37.572;2023-01-06T08:44:54;100032.09;;;-14.58;56.91
20228;BME280;12195;55.790;37.572;2023-01-06T08:47:30;100041.86;;;-14.97;56.39
20228;BME280;12195;55.790;37.572;2023-01-06T08:50:03;100048.50;;;-15.31;57.12
20228;BME280;12195;55.790;37.572;2023-01-06T08:52:35;100055.17;;;-15.32;57.48
20228;BME280;12195;55.790;37.572;2023-01-06T08:55:08;100057.86;;;-15.13;56.99
20228;BME280;12195;55.790;37.572;2023-01-06T08:57:40;100066.91;;;-15.16;56.69
20228;BME280;12195;55.790;37.572;2023-01-06T09:00:13;100062.89;;;-15.29;56.51
20228;BME280;12195;55.790;37.572;2023-01-06T09:02:44;100065.58;;;-15.58;56.76
20228;BME280;12195;55.790;37.572;2023-01-06T09:05:17;100064.44;;;-15.79;57.14
20228;BME280;12195;55.790;37.572;2023-01-06T09:07:50;100077.67;;;-15.97;57.05
20228;BME280;12195;55.790;37.572;2023-01-06T09:10:23;100072.99;;;-16.06;56.93
20228;BME280;12195;55.790;37.572;2023-01-06T09:12:56;100072.88;;;-16.23;57.11
20228;BME280;12195;55.790;37.572;2023-01-06T09:15:28;100078.94;;;-16.34;57.58
20228;BME280;12195;55.790;37.572;2023-01-06T09:18:00;100086.38;;;-16.36;57.73
20228;BME280;12195;55.790;37.572;2023-01-06T09:20:33;100090.53;;;-16.36;57.53
20228;BME280;12195;55.790;37.572;2023-01-06T09:23:05;100096.05;;;-16.43;57.61
20228;BME280;12195;55.790;37.572;2023-01-06T09:25:37;100099.25;;;-16.46;57.39
20228;BME280;12195;55.790;37.572;2023-01-06T09:28:09;100097.95;;;-16.54;57.51
20228;BME280;12195;55.790;37.572;2023-01-06T09:30:42;100097.67;;;-16.58;57.86
20228;BME280;12195;55.790;37.572;2023-01-06T09:33:16;100082.89;;;-16.54;57.87
20228;BME280;12195;55.790;37.572;2023-01-06T09:35:49;100069.55;;;-16.53;57.85
20228;BME280;12195;55.790;37.572;2023-01-06T09:38:21;100067.87;;;-16.52;57.78
20228;BME280;12195;55.790;37.572;2023-01-06T09:46:33;100068.25;;;-16.61;58.20
20228;BME280;12195;55.790;37.572;2023-01-06T09:51:42;100075.50;;;-16.51;58.67
20228;BME280;12195;55.790;37.572;2023-01-06T09:54:23;100069.27;;;-16.43;58.60
20228;BME280;12195;55.790;37.572;2023-01-06T09:57:09;100068.56;;;-16.40;58.87
20228;BME280;12195;55.790;37.572;2023-01-06T09:59:57;100064.57;;;-16.37;58.43
20228;BME280;12195;55.790;37.572;2023-01-06T10:02:39;100065.77;;;-16.30;58.28
20228;BME280;12195;55.790;37.572;2023-01-06T10:05:20;100076.34;;;-16.36;58.22
20228;BME280;12195;55.790;37.572;2023-01-06T10:08:44;100077.77;;;-16.41;58.55
20228;BME280;12195;55.790;37.572;2023-01-06T10:19:14;100090.66;;;-16.49;59.08
20228;BME280;12195;55.790;37.572;2023-01-06T10:21:47;100080.53;;;-16.51;59.45
20228;BME280;12195;55.790;37.572;2023-01-06T10:29:59;100078.47;;;-16.43;59.41
20228;BME280;12195;55.790;37.572;2023-01-06T10:32:34;100077.77;;;-16.41;59.56
20228;BME280;12195;55.790;37.572;2023-01-06T10:35:14;100089.83;;;-16.34;59.72
20228;BME280;12195;55.790;37.572;2023-01-06T10:37:48;100086.71;;;-16.30;59.85
20228;BME280;12195;55.790;37.572;2023-01-06T10:40:31;100094.60;;;-16.24;60.02
20228;BME280;12195;55.790;37.572;2023-01-06T10:43:11;100094.93;;;-16.18;60.08
20228;BME280;12195;55.790;37.572;2023-01-06T10:45:45;100104.37;;;-16.14;60.18
20228;BME280;12195;55.790;37.572;2023-01-06T10:48:22;100114.42;;;-16.14;60.21
20228;BME280;12195;55.790;37.572;2023-01-06T10:50:54;100114.27;;;-16.17;60.09
20228;BME280;12195;55.790;37.572;2023-01-06T10:53:27;100119.03;;;-16.21;59.82
20228;BME280;12195;55.790;37.572;2023-01-06T10:56:01;100118.00;;;-16.25;59.97
20228;BME280;12195;55.790;37.572;2023-01-06T10:58:44;100119.72;;;-16.24;59.90
20228;BME280;12195;55.790;37.572;2023-01-06T11:01:23;100122.84;;;-16.28;59.92
20228;BME280;12195;55.790;37.572;2023-01-06T11:04:08;100125.53;;;-16.25;59.79
20228;BME280;12195;55.790;37.572;2023-01-06T11:09:40;100125.63;;;-16.23;59.67
20228;BME280;12195;55.790;37.572;2023-01-06T11:12:24;100110.89;;;-16.32;59.71
20228;BME280;12195;55.790;37.572;2023-01-06T11:15:02;100117.45;;;-16.34;59.91
20228;BME280;12195;55.790;37.572;2023-01-06T11:17:36;100114.95;;;-16.34;60.04
20228;BME280;12195;55.790;37.572;2023-01-06T11:22:46;100127.08;;;-16.27;60.32
20228;BME280;12195;55.790;37.572;2023-01-06T11:25:22;100135.67;;;-16.23;60.32
20228;BME280;12195;55.790;37.572;2023-01-06T11:28:19;100132.11;;;-16.27;60.30
20228;BME280;12195;55.790;37.572;2023-01-06T11:31:07;100139.45;;;-16.30;60.27
20228;BME280;12195;55.790;37.572;2023-01-06T11:33:45;100138.34;;;-16.35;60.39
20228;BME280;12195;55.790;37.572;2023-01-06T11:36:11;100135.92;;;-16.33;60.44
20228;BME280;12195;55.790;37.572;2023-01-06T11:41:40;100136.61;;;-16.36;60.49
20228;BME280;12195;55.790;37.572;2023-01-06T11:44:16;100138.34;;;-16.35;60.48
20228;BME280;12195;55.790;37.572;2023-01-06T11:46:50;100134.47;;;-16.44;60.57
20228;BME280;12195;55.790;37.572;2023-01-06T11:49:35;100144.60;;;-16.43;60.69
20228;BME280;12195;55.790;37.572;2023-01-06T11:52:32;100140.28;;;-16.45;60.80
20228;BME280;12195;55.790;37.572;2023-01-06T11:58:50;100141.06;;;-16.46;60.95
20228;BME280;12195;55.790;37.572;2023-01-06T12:00:44;100145.48;;;-16.42;61.09
20228;BME280;12195;55.790;37.572;2023-01-06T12:03:39;100143.27;;;-16.36;61.08
20228;BME280;12195;55.790;37.572;2023-01-06T12:06:25;100139.24;;;-16.49;61.08
20228;BME280;12195;55.790;37.572;2023-01-06T12:11:50;100135.25;;;-16.45;60.92
20228;BME280;12195;55.790;37.572;2023-01-06T12:14:33;100140.69;;;-16.52;60.94
20228;BME280;12195;55.790;37.572;2023-01-06T12:19:55;100152.31;;;-16.54;61.14
20228;BME280;12195;55.790;37.572;2023-01-06T12:25:30;100165.19;;;-16.63;60.98
20228;BME280;12195;55.790;37.572;2023-01-06T12:28:06;100153.92;;;-16.69;61.05
20228;BME280;12195;55.790;37.572;2023-01-06T12:33:41;100145.92;;;-16.91;61.49
20228;BME280;12195;55.790;37.572;2023-01-06T12:36:18;100145.92;;;-16.91;61.49
20228;BME280;12195;55.790;37.572;2023-01-06T12:39:00;100171.05;;;-16.77;61.89
20228;BME280;12195;55.790;37.572;2023-01-06T12:41:29;100160.48;;;-16.86;61.81
20228;BME280;12195;55.790;37.572;2023-01-06T12:52:58;100175.66;;;-16.97;61.82
20228;BME280;12195;55.790;37.572;2023-01-06T13:01:52;100181.89;;;-17.18;62.18
20228;BME280;12195;55.790;37.572;2023-01-06T13:04:01;100191.83;;;-17.20;62.44
20228;BME280;12195;55.790;37.572;2023-01-06T13:10:00;100206.72;;;-17.23;62.66
20228;BME280;12195;55.790;37.572;2023-01-06T13:12:45;100202.67;;;-17.34;62.79
20228;BME280;12195;55.790;37.572;2023-01-06T13:15:25;100213.48;;;-17.35;62.90
20228;BME280;12195;55.790;37.572;2023-01-06T13:18:37;100225.92;;;-17.36;63.07
20228;BME280;12195;55.790;37.572;2023-01-06T13:20:49;100230.25;;;-17.34;63.21
20228;BME280;12195;55.790;37.572;2023-01-06T13:26:41;100227.22;;;-17.43;63.37
20228;BME280;12195;55.790;37.572;2023-01-06T13:35:19;100246.61;;;-17.53;63.67
20228;BME280;12195;55.790;37.572;2023-01-06T13:40:31;100252.66;;;-17.50;63.77
20228;BME280;12195;55.790;37.572;2023-01-06T13:43:23;100270.41;;;-17.47;63.77
20228;BME280;12195;55.790;37.572;2023-01-06T13:46:06;100266.08;;;-17.49;63.76
20228;BME280;12195;55.790;37.572;2023-01-06T13:48:34;100267.61;;;-17.51;63.73
20228;BME280;12195;55.790;37.572;2023-01-06T13:51:11;100280.72;;;-17.55;63.68
20228;BME280;12195;55.790;37.572;2023-01-06T13:53:45;100266.83;;;-17.63;63.63
20228;BME280;12195;55.790;37.572;2023-01-06T13:56:22;100265.09;;;-17.64;63.69
20228;BME280;12195;55.790;37.572;2023-01-06T14:01:46;100269.44;;;-17.62;63.71
20228;BME280;12195;55.790;37.572;2023-01-06T14:07:10;100286.19;;;-17.74;63.77
20228;BME280;12195;55.790;37.572;2023-01-06T14:09:45;100291.10;;;-17.75;63.46
20228;BME280;12195;55.790;37.572;2023-01-06T14:12:22;100292.45;;;-17.80;63.51
20228;BME280;12195;55.790;37.572;2023-01-06T14:14:59;100295.25;;;-17.89;63.24
20228;BME280;12195;55.790;37.572;2023-01-06T14:17:40;100308.02;;;-17.97;63.36
20228;BME280;12195;55.790;37.572;2023-01-06T14:20:37;100303.58;;;-18.01;63.57
20228;BME280;12195;55.790;37.572;2023-01-06T14:25:51;100301.54;;;-18.07;63.85
20228;BME280;12195;55.790;37.572;2023-01-06T14:28:27;100300.77;;;-18.06;64.10
20228;BME280;12195;55.790;37.572;2023-01-06T14:34:06;100315.16;;;-18.03;63.83
20228;BME280;12195;55.790;37.572;2023-01-06T14:36:39;100317.23;;;-18.09;63.57
20228;BME280;12195;55.790;37.572;2023-01-06T14:39:17;100323.37;;;-18.17;63.57
20228;BME280;12195;55.790;37.572;2023-01-06T14:41:53;100312.30;;;-18.21;63.57
20228;BME280;12195;55.790;37.572;2023-01-06T14:44:36;100319.03;;;-18.20;63.62
20228;BME280;12195;55.790;37.572;2023-01-06T14:50:19;100330.94;;;-18.29;63.64
20228;BME280;12195;55.790;37.572;2023-01-06T14:52:55;100329.80;;;-18.34;63.66
20228;BME280;12195;55.790;37.572;2023-01-06T14:55:30;100336.72;;;-18.30;63.77
20228;BME280;12195;55.790;37.572;2023-01-06T14:58:03;100344.72;;;-18.35;63.38
20228;BME280;12195;55.790;37.572;2023-01-06T15:00:35;100344.72;;;-18.35;63.30
20228;BME280;12195;55.790;37.572;2023-01-06T15:03:21;100358.27;;;-18.32;63.27
20228;BME280;12195;55.790;37.572;2023-01-06T15:06:15;100337.44;;;-18.44;63.14
20228;BME280;12195;55.790;37.572;2023-01-06T15:08:44;100355.52;;;-18.48;63.32
20228;BME280;12195;55.790;37.572;2023-01-06T15:13:57;100359.80;;;-18.58;63.40
20228;BME280;12195;55.790;37.572;2023-01-06T15:16:38;100361.01;;;-18.65;63.57
20228;BME280;12195;55.790;37.572;2023-01-06T15:19:13;100364.83;;;-18.70;63.57
20228;BME280;12195;55.790;37.572;2023-01-06T15:21:46;100366.16;;;-18.75;63.77
20228;BME280;12195;55.790;37.572;2023-01-06T15:26:55;100368.11;;;-18.71;63.99
20228;BME280;12195;55.790;37.572;2023-01-06T15:29:29;100371.16;;;-18.75;64.11